createdAt,value
2023-02-12T00:01:10.424Z,11.60
2023-02-12T00:03:38.747Z,11.67
2023-02-12T00:06:07.367Z,12.83
2023-02-12T00:08:35.752Z,11.57
2023-02-12T00:11:10.125Z,12.50
2023-02-12T00:13:40.271Z,13.60
2023-02-12T00:16:09.447Z,12.50
2023-02-12T00:18:37.795Z,13.77
2023-02-12T00:21:08.740Z,13.47
2023-02-12T00:23:37.070Z,13.63
2023-02-12T00:26:07.081Z,13.73
2023-02-12T00:28:35.146Z,12.77
2023-02-12T00:31:08.367Z,12.87
2023-02-12T00:33:36.408Z,12.87
2023-02-12T00:36:05.272Z,11.80
2023-02-12T00:38:33.321Z,12.13
2023-02-12T00:41:01.305Z,11.93
2023-02-12T00:43:29.283Z,12.93
2023-02-12T00:45:57.807Z,11.83
2023-02-12T00:48:27.617Z,12.00
2023-02-12T00:50:55.603Z,12.70
2023-02-12T00:53:23.900Z,11.03
2023-02-12T00:55:51.871Z,10.27
2023-02-12T00:58:19.820Z,9.87
2023-02-12T01:00:48.191Z,11.63
2023-02-12T01:03:16.684Z,10.70
2023-02-12T01:05:46.021Z,10.33
2023-02-12T01:08:15.544Z,11.03
2023-02-12T01:10:44.038Z,11.27
2023-02-12T01:13:14.019Z,11.03
2023-02-12T01:15:43.255Z,10.27
2023-02-12T01:18:11.428Z,9.93
2023-02-12T01:20:41.356Z,10.80
2023-02-12T01:23:10.719Z,11.03
2023-02-12T01:25:39.758Z,10.40
2023-02-12T01:28:07.760Z,9.83
2023-02-12T01:30:35.702Z,10.27
2023-02-12T01:33:03.668Z,9.47
2023-02-12T01:35:31.665Z,9.43
2023-02-12T01:37:59.581Z,9.63
2023-02-12T01:40:28.956Z,10.03
2023-02-12T01:42:56.868Z,10.10
2023-02-12T01:45:47.162Z,10.10
2023-02-12T01:48:17.416Z,9.27
2023-02-12T01:50:46.713Z,8.27
2023-02-12T01:53:20.147Z,9.17
2023-02-12T01:55:55.195Z,8.30
2023-02-12T01:58:25.468Z,8.33
2023-02-12T02:00:54.349Z,8.53
2023-02-12T02:03:22.612Z,8.50
2023-02-12T02:05:57.982Z,7.77
2023-02-12T02:08:26.575Z,7.53
2023-02-12T02:10:55.927Z,8.13
2023-02-12T02:13:41.137Z,7.40
2023-02-12T02:16:20.958Z,7.33
2023-02-12T02:18:54.143Z,7.57
2023-02-12T02:21:48.225Z,7.57
2023-02-12T02:24:54.734Z,7.57
2023-02-12T02:27:43.018Z,7.10
2023-02-12T02:30:45.500Z,7.00
2023-02-12T02:33:35.347Z,7.57
2023-02-12T02:36:15.537Z,6.90
2023-02-12T02:38:47.099Z,7.23
2023-02-12T02:41:20.403Z,6.70
2023-02-12T02:43:51.432Z,6.87
2023-02-12T02:46:27.165Z,7.40
2023-02-12T02:48:59.357Z,6.17
2023-02-12T02:51:31.718Z,5.07
2023-02-12T02:54:06.596Z,5.70
2023-02-12T02:56:38.948Z,6.17
2023-02-12T02:59:11.887Z,5.73
2023-02-12T03:01:46.368Z,5.43
2023-02-12T03:04:19.505Z,5.73
2023-02-12T03:06:51.699Z,5.77
2023-02-12T03:09:23.432Z,4.83
2023-02-12T03:11:51.821Z,5.47
2023-02-12T03:14:23.258Z,4.97
2023-02-12T03:16:59.138Z,5.33
2023-02-12T03:19:30.720Z,5.47
2023-02-12T03:22:02.229Z,5.63
2023-02-12T03:24:36.078Z,5.13
2023-02-12T03:27:08.546Z,4.83
2023-02-12T03:29:36.903Z,5.80
2023-02-12T03:32:17.287Z,5.17
2023-02-12T03:34:52.107Z,4.90
2023-02-12T03:37:26.003Z,5.57
2023-02-12T03:39:58.162Z,5.57
2023-02-12T03:42:35.469Z,5.27
2023-02-12T03:45:09.958Z,5.73
2023-02-12T03:47:45.151Z,5.17
2023-02-12T03:50:18.559Z,5.60
2023-02-12T03:52:47.418Z,5.53
2023-02-12T03:55:16.195Z,5.47
2023-02-12T03:57:47.997Z,4.47
2023-02-12T04:00:20.427Z,4.83
2023-02-12T04:02:50.158Z,5.20
2023-02-12T04:05:21.172Z,5.00
2023-02-12T04:07:50.181Z,5.50
2023-02-12T04:10:19.188Z,4.50
2023-02-12T04:12:55.471Z,4.57
2023-02-12T04:15:44.812Z,4.10
2023-02-12T04:18:18.886Z,4.30
2023-02-12T04:20:56.233Z,4.10
2023-02-12T04:23:36.470Z,4.57
2023-02-12T04:26:12.104Z,4.03
2023-02-12T04:28:48.614Z,4.27
2023-02-12T04:31:24.687Z,4.43
2023-02-12T04:34:06.190Z,3.43
2023-02-12T04:36:39.227Z,3.67
2023-02-12T04:39:12.124Z,3.60
2023-02-12T04:41:40.594Z,3.27
2023-02-12T04:44:27.221Z,3.23
2023-02-12T04:46:55.232Z,3.27
2023-02-12T04:49:25.208Z,2.87
2023-02-12T04:51:53.262Z,3.50
2023-02-12T04:54:23.001Z,3.27
2023-02-12T04:56:51.829Z,3.20
2023-02-12T04:59:19.882Z,2.70
2023-02-12T05:01:47.978Z,3.20
2023-02-12T05:04:17.554Z,3.87
2023-02-12T05:06:47.716Z,3.50
2023-02-12T05:09:17.577Z,3.23
2023-02-12T05:11:45.906Z,3.60
2023-02-12T05:14:14.037Z,3.40
2023-02-12T05:16:42.135Z,3.03
2023-02-12T05:19:10.437Z,2.73
2023-02-12T05:21:38.965Z,3.33
2023-02-12T05:24:09.138Z,3.03
2023-02-12T05:26:37.428Z,3.40
2023-02-12T05:29:05.434Z,3.17
2023-02-12T05:31:33.588Z,2.83
2023-02-12T05:34:01.801Z,3.23
2023-02-12T05:36:29.809Z,3.20
2023-02-12T05:38:59.870Z,3.10
2023-02-12T05:41:29.323Z,4.00
2023-02-12T05:43:57.278Z,2.80
2023-02-12T05:46:25.315Z,2.93
2023-02-12T05:48:53.381Z,3.10
2023-02-12T05:51:23.267Z,2.70
2023-02-12T05:53:52.308Z,3.53
2023-02-12T05:56:24.188Z,3.40
2023-02-12T05:58:56.439Z,2.57
2023-02-12T06:01:27.103Z,3.30
2023-02-12T06:03:55.375Z,3.03
2023-02-12T06:06:23.545Z,3.33
2023-02-12T06:08:51.535Z,3.70
2023-02-12T06:11:20.822Z,3.77
2023-02-12T06:13:49.440Z,3.33
2023-02-12T06:16:24.429Z,2.70
2023-02-12T06:18:53.133Z,3.50
2023-02-12T06:21:22.676Z,2.90
2023-02-12T06:23:51.889Z,3.77
2023-02-12T06:26:20.234Z,3.20
2023-02-12T06:28:48.279Z,3.63
2023-02-12T06:31:23.294Z,3.00
2023-02-12T06:33:52.031Z,3.63
2023-02-12T06:36:20.864Z,3.60
2023-02-12T06:38:49.842Z,3.40
2023-02-12T06:41:17.997Z,2.90
2023-02-12T06:43:46.075Z,3.63
2023-02-12T06:46:14.797Z,3.63
2023-02-12T06:48:44.222Z,3.60
2023-02-12T06:51:13.963Z,4.00
2023-02-12T06:53:42.244Z,4.27
2023-02-12T06:56:13.315Z,3.77
2023-02-12T06:58:42.583Z,3.70
2023-02-12T07:01:13.574Z,3.27
2023-02-12T07:03:43.812Z,3.67
2023-02-12T07:06:12.088Z,3.17
2023-02-12T07:08:40.435Z,3.30
2023-02-12T07:11:08.528Z,3.60
2023-02-12T07:13:37.268Z,3.93
2023-02-12T07:16:06.886Z,3.20
2023-02-12T07:18:35.093Z,4.30
2023-02-12T07:21:05.523Z,4.07
2023-02-12T07:23:33.652Z,4.23
2023-02-12T07:26:04.242Z,3.73
2023-02-12T07:28:33.752Z,3.80
2023-02-12T07:31:07.062Z,3.30
2023-02-12T07:33:35.444Z,3.93
2023-02-12T07:36:06.355Z,3.93
2023-02-12T07:38:36.055Z,4.50
2023-02-12T07:41:12.228Z,5.60
2023-02-12T07:43:40.876Z,4.30
2023-02-12T07:46:13.366Z,4.07
2023-02-12T07:48:41.707Z,4.10
2023-02-12T07:51:13.067Z,5.77
2023-02-12T07:53:41.869Z,4.43
2023-02-12T07:56:11.743Z,5.03
2023-02-12T07:58:40.737Z,4.47
2023-02-12T08:01:16.585Z,3.90
2023-02-12T08:03:45.464Z,3.80
2023-02-12T08:06:17.398Z,4.10
2023-02-12T08:08:45.652Z,4.10
2023-02-12T08:11:15.793Z,5.10
2023-02-12T08:13:43.764Z,5.13
2023-02-12T08:16:13.553Z,4.20
2023-02-12T08:18:41.852Z,5.10
2023-02-12T08:21:11.420Z,6.00
2023-02-12T08:23:41.048Z,6.37
2023-02-12T08:26:11.115Z,7.27
2023-02-12T08:28:41.250Z,7.97
2023-02-12T08:31:12.199Z,7.90
2023-02-12T08:33:40.249Z,19.80
2023-02-12T08:36:11.352Z,23.00
2023-02-12T08:38:41.209Z,17.27
2023-02-12T08:41:11.277Z,10.83
2023-02-12T08:43:39.934Z,8.47
2023-02-12T08:46:09.488Z,7.63
2023-02-12T08:48:37.958Z,7.83
2023-02-12T08:51:08.155Z,7.13
2023-02-12T08:53:36.171Z,6.90
2023-02-12T08:56:06.485Z,7.07
2023-02-12T08:58:34.934Z,6.67
2023-02-12T09:01:03.408Z,5.70
2023-02-12T09:06:15.737Z,6.50
2023-02-12T09:08:44.308Z,5.73
2023-02-12T09:11:16.551Z,7.30
2023-02-12T09:13:45.848Z,6.20
2023-02-12T09:16:14.507Z,6.17
2023-02-12T09:18:42.929Z,5.70
2023-02-12T09:21:14.627Z,6.10
2023-02-12T09:23:42.611Z,6.07
2023-02-12T09:26:15.150Z,6.43
2023-02-12T09:28:43.733Z,7.33
2023-02-12T09:31:13.444Z,7.03
2023-02-12T09:33:42.491Z,7.40
2023-02-12T09:36:13.313Z,7.40
2023-02-12T09:38:41.960Z,7.07
2023-02-12T09:41:29.574Z,7.13
2023-02-12T09:44:02.355Z,9.10
2023-02-12T09:46:34.046Z,9.33
2023-02-12T09:49:10.158Z,8.93
2023-02-12T09:51:41.041Z,10.57
2023-02-12T09:54:14.584Z,9.57
2023-02-12T09:56:49.883Z,9.30
2023-02-12T09:59:29.800Z,7.87
2023-02-12T10:01:59.794Z,8.63
2023-02-12T10:04:28.995Z,8.60
2023-02-12T10:07:08.027Z,8.63
2023-02-12T10:09:52.497Z,7.83
2023-02-12T10:12:32.633Z,8.93
2023-02-12T10:15:18.026Z,8.20
2023-02-12T10:17:53.155Z,9.47
2023-02-12T10:20:41.791Z,7.43
2023-02-12T10:23:28.424Z,7.03
2023-02-12T10:25:59.348Z,6.87
2023-02-12T10:28:34.825Z,7.33
2023-02-12T10:31:06.997Z,7.70
2023-02-12T10:33:40.660Z,7.50
2023-02-12T10:36:20.857Z,6.33
2023-02-12T10:38:58.102Z,5.83
2023-02-12T10:41:29.431Z,6.57
2023-02-12T10:43:59.376Z,7.33
2023-02-12T10:46:31.501Z,6.63
2023-02-12T10:49:01.109Z,7.07
2023-02-12T10:51:41.134Z,6.57
2023-02-12T10:54:38.855Z,6.37
2023-02-12T10:57:14.671Z,7.37
2023-02-12T10:59:45.636Z,7.73
2023-02-12T11:02:23.126Z,8.77
2023-02-12T11:04:52.024Z,8.73
2023-02-12T11:07:20.123Z,7.63
2023-02-12T11:09:49.685Z,9.63
2023-02-12T11:12:24.416Z,9.77
2023-02-12T11:14:55.344Z,9.03
2023-02-12T11:17:29.725Z,7.60
2023-02-12T11:20:10.397Z,7.10
2023-02-12T11:22:38.486Z,7.10
2023-02-12T11:25:16.920Z,7.50
2023-02-12T11:27:45.318Z,7.57
2023-02-12T11:30:22.055Z,7.37
2023-02-12T11:32:51.633Z,8.40
2023-02-12T11:35:25.812Z,6.90
2023-02-12T11:37:56.183Z,6.40
2023-02-12T11:40:26.495Z,5.33
2023-02-12T11:42:57.864Z,6.97
2023-02-12T11:45:31.493Z,6.53
2023-02-12T11:48:00.242Z,5.37
2023-02-12T11:50:30.284Z,4.07
2023-02-12T11:53:01.557Z,4.57
2023-02-12T11:55:33.840Z,5.17
2023-02-12T11:58:14.585Z,4.27
2023-02-12T12:00:50.597Z,4.03
2023-02-12T12:03:25.740Z,3.97
2023-02-12T12:05:56.567Z,3.97
2023-02-12T12:08:27.947Z,4.57
2023-02-12T12:11:00.955Z,4.60
2023-02-12T12:13:35.042Z,4.90
2023-02-12T12:16:29.677Z,4.23
2023-02-12T12:19:20.741Z,3.67
2023-02-12T12:21:56.380Z,3.40
2023-02-12T12:24:32.564Z,4.17
2023-02-12T12:27:14.215Z,4.17
2023-02-12T12:29:51.904Z,3.50
2023-02-12T12:32:24.001Z,3.80
2023-02-12T12:34:52.017Z,2.67
2023-02-12T12:37:32.145Z,4.07
2023-02-12T12:40:16.548Z,3.00
2023-02-12T12:43:04.097Z,3.20
2023-02-12T12:46:13.716Z,2.70
2023-02-12T12:49:15.161Z,3.27
2023-02-12T12:52:07.569Z,3.20
2023-02-12T12:54:48.736Z,2.83
2023-02-12T12:57:32.809Z,2.90
2023-02-12T13:00:10.405Z,3.43
2023-02-12T13:03:29.757Z,3.40
2023-02-12T13:06:16.934Z,3.80
2023-02-12T13:08:58.206Z,3.43
2023-02-12T13:11:38.182Z,3.27
2023-02-12T13:14:18.899Z,3.00
2023-02-12T13:16:53.237Z,4.33
2023-02-12T13:19:33.631Z,3.23
2023-02-12T13:22:11.986Z,3.40
2023-02-12T13:24:46.270Z,2.63
2023-02-12T13:27:17.720Z,2.93
2023-02-12T13:29:49.406Z,3.67
2023-02-12T13:32:25.002Z,3.67
2023-02-12T13:34:55.435Z,3.97
2023-02-12T13:37:35.265Z,3.10
2023-02-12T13:40:06.137Z,3.73
2023-02-12T13:42:46.621Z,3.50
2023-02-12T13:45:25.912Z,3.63
2023-02-12T13:48:06.912Z,2.93
2023-02-12T13:50:43.003Z,3.13
2023-02-12T13:53:22.002Z,3.53
2023-02-12T13:56:04.980Z,3.00
2023-02-12T13:58:52.868Z,3.10
2023-02-12T14:01:45.081Z,4.10
2023-02-12T14:04:31.849Z,3.33
2023-02-12T14:07:03.207Z,3.33
2023-02-12T14:09:37.831Z,3.53
2023-02-12T14:12:07.726Z,3.47
2023-02-12T14:14:38.468Z,3.47
2023-02-12T14:17:46.353Z,3.20
2023-02-12T14:20:27.207Z,3.33
2023-02-12T14:23:20.161Z,2.73
2023-02-12T14:25:56.437Z,3.53
2023-02-12T14:28:42.517Z,3.43
2023-02-12T14:31:33.943Z,3.93
2023-02-12T14:34:51.789Z,3.43
2023-02-12T14:37:38.393Z,3.90
2023-02-12T14:40:32.519Z,4.30
2023-02-12T14:43:03.716Z,3.60
2023-02-12T14:45:35.154Z,3.43
2023-02-12T14:48:04.313Z,3.27
2023-02-12T14:50:50.414Z,3.10
2023-02-12T14:53:28.888Z,3.60
2023-02-12T14:55:58.256Z,3.20
2023-02-12T14:58:30.724Z,3.17
2023-02-12T15:01:01.050Z,3.80
2023-02-12T15:03:35.742Z,3.23
2023-02-12T15:06:09.546Z,3.93
2023-02-12T15:08:44.608Z,3.37
2023-02-12T15:11:36.025Z,3.90
2023-02-12T15:14:08.630Z,3.60
2023-02-12T15:16:44.786Z,4.20
2023-02-12T15:19:21.938Z,3.40
2023-02-12T15:21:54.405Z,3.97
2023-02-12T15:24:25.523Z,3.93
2023-02-12T15:26:55.649Z,4.90
2023-02-12T15:29:28.691Z,4.10
2023-02-12T15:31:58.694Z,4.50
2023-02-12T15:34:29.724Z,4.67
2023-02-12T15:37:00.279Z,4.83
2023-02-12T15:39:32.002Z,5.23
2023-02-12T15:41:59.978Z,5.27
2023-02-12T15:44:31.461Z,5.17
2023-02-12T15:47:02.295Z,5.27
2023-02-12T15:49:34.370Z,6.23
2023-02-12T15:52:06.631Z,4.90
2023-02-12T15:54:34.843Z,4.80
2023-02-12T15:57:03.691Z,4.33
2023-02-12T15:59:33.101Z,4.23
2023-02-12T16:02:03.570Z,4.63
2023-02-12T16:04:34.159Z,4.60
2023-02-12T16:07:03.632Z,4.40
2023-02-12T16:09:35.054Z,4.73
2023-02-12T16:12:10.154Z,4.33
2023-02-12T16:14:44.606Z,5.47
2023-02-12T16:17:23.123Z,5.07
2023-02-12T16:20:02.219Z,5.27
2023-02-12T16:22:33.714Z,5.60
2023-02-12T16:25:02.575Z,5.73
2023-02-12T16:27:32.399Z,6.07
2023-02-12T16:30:03.639Z,5.80
2023-02-12T16:32:36.654Z,5.37
2023-02-12T16:35:23.507Z,5.33
2023-02-12T16:37:56.354Z,4.83
2023-02-12T16:40:36.622Z,4.93
2023-02-12T16:43:26.714Z,4.03
2023-02-12T16:46:06.262Z,3.80
2023-02-12T16:48:40.265Z,4.13
2023-02-12T16:51:20.669Z,4.50
2023-02-12T16:53:50.054Z,4.30
2023-02-12T16:56:21.116Z,4.97
2023-02-12T16:58:50.968Z,4.50
2023-02-12T17:01:24.468Z,4.93
2023-02-12T17:03:53.547Z,6.00
2023-02-12T17:06:23.158Z,8.80
2023-02-12T17:08:51.504Z,11.47
2023-02-12T17:11:19.912Z,6.00
2023-02-12T17:13:49.420Z,6.90
2023-02-12T17:16:29.720Z,6.73
2023-02-12T17:19:00.380Z,4.67
2023-02-12T17:21:30.627Z,5.27
2023-02-12T17:23:58.971Z,4.83
2023-02-12T17:26:26.932Z,4.80
2023-02-12T17:28:54.929Z,4.50
2023-02-12T17:31:23.865Z,4.70
2023-02-12T17:33:52.107Z,4.10
2023-02-12T17:36:21.429Z,4.80
2023-02-12T17:38:49.916Z,4.37
2023-02-12T17:41:17.877Z,4.80
2023-02-12T17:43:46.382Z,4.93
2023-02-12T17:46:22.226Z,4.23
2023-02-12T17:48:50.439Z,4.53
2023-02-12T17:51:18.605Z,3.93
2023-02-12T17:53:48.582Z,4.30
2023-02-12T17:56:18.984Z,5.20
2023-02-12T17:58:47.938Z,4.50
2023-02-12T18:01:18.106Z,4.43
2023-02-12T18:03:46.243Z,3.90
2023-02-12T18:06:16.605Z,3.83
2023-02-12T18:08:44.707Z,4.97
2023-02-12T18:11:14.806Z,3.90
2023-02-12T18:13:43.108Z,5.80
2023-02-12T18:16:12.697Z,5.70
2023-02-12T18:18:41.328Z,4.63
2023-02-12T18:21:10.558Z,4.13
2023-02-12T18:23:39.411Z,4.10
2023-02-12T18:26:08.721Z,4.20
2023-02-12T18:28:38.640Z,4.20
2023-02-12T18:31:07.467Z,3.73
2023-02-12T18:33:36.112Z,4.43
2023-02-12T18:36:06.193Z,5.30
2023-02-12T18:38:35.242Z,3.60
2023-02-12T18:41:07.560Z,3.70
2023-02-12T18:43:37.476Z,3.40
2023-02-12T18:46:10.098Z,3.80
2023-02-12T18:48:38.455Z,3.70
2023-02-12T18:51:08.305Z,3.40
2023-02-12T18:53:36.300Z,3.53
2023-02-12T18:56:06.294Z,4.17
2023-02-12T18:58:34.930Z,3.60
2023-02-12T19:01:13.786Z,3.80
2023-02-12T19:03:41.902Z,3.97
2023-02-12T19:06:10.298Z,5.30
2023-02-12T19:08:38.294Z,4.43
2023-02-12T19:11:07.009Z,9.20
2023-02-12T19:13:34.996Z,3.43
2023-02-12T19:16:08.700Z,4.10
2023-02-12T19:18:36.771Z,3.57
2023-02-12T19:21:07.250Z,4.37
2023-02-12T19:23:35.593Z,3.83
2023-02-12T19:26:05.081Z,3.23
2023-02-12T19:28:34.338Z,3.33
2023-02-12T19:31:14.152Z,3.63
2023-02-12T19:33:43.457Z,3.03
2023-02-12T19:36:14.242Z,3.27
2023-02-12T19:38:42.741Z,3.13
2023-02-12T19:41:13.788Z,2.80
2023-02-12T19:43:41.910Z,3.00
2023-02-12T19:46:12.846Z,3.40
2023-02-12T19:48:41.615Z,3.03
2023-02-12T19:51:13.443Z,2.97
2023-02-12T19:53:41.491Z,2.70
2023-02-12T19:56:10.697Z,2.93
2023-02-12T19:58:39.044Z,3.10
2023-02-12T20:01:11.653Z,3.27
2023-02-12T20:03:40.098Z,2.77
2023-02-12T20:06:10.712Z,2.70
2023-02-12T20:08:39.342Z,2.60
2023-02-12T20:11:07.896Z,2.67
2023-02-12T20:13:36.656Z,3.37
2023-02-12T20:16:04.962Z,3.47
2023-02-12T20:18:34.458Z,3.27
2023-02-12T20:21:02.915Z,3.10
2023-02-12T20:23:30.877Z,3.13
2023-02-12T20:25:58.846Z,2.77
2023-02-12T20:28:26.981Z,3.23
2023-02-12T20:30:55.465Z,3.20
2023-02-12T20:33:23.626Z,2.73
2023-02-12T20:35:57.851Z,3.50
2023-02-12T20:38:25.837Z,3.20
2023-02-12T20:40:54.745Z,3.60
2023-02-12T20:43:22.992Z,3.67
2023-02-12T20:45:50.939Z,4.03
2023-02-12T20:48:20.943Z,3.37
2023-02-12T20:50:49.452Z,3.07
2023-02-12T20:53:18.735Z,3.70
2023-02-12T20:55:46.708Z,4.00
2023-02-12T20:58:14.680Z,3.80
2023-02-12T21:00:42.845Z,4.37
2023-02-12T21:03:11.083Z,3.83
2023-02-12T21:05:39.210Z,3.40
2023-02-12T21:08:07.368Z,3.70
2023-02-12T21:10:36.716Z,4.33
2023-02-12T21:13:04.681Z,4.50
2023-02-12T21:15:32.756Z,4.60
2023-02-12T21:18:00.724Z,4.10
2023-02-12T21:20:29.316Z,4.90
2023-02-12T21:22:57.440Z,4.50
2023-02-12T21:25:25.397Z,4.33
2023-02-12T21:27:54.784Z,5.10
2023-02-12T21:30:23.979Z,5.27
2023-02-12T21:32:53.700Z,5.77
2023-02-12T21:35:21.652Z,5.37
2023-02-12T21:37:49.638Z,6.20
2023-02-12T21:40:17.871Z,6.27
2023-02-12T21:42:45.880Z,5.93
2023-02-12T21:45:15.207Z,6.33
2023-02-12T21:47:43.161Z,5.47
2023-02-12T21:50:14.100Z,5.23
2023-02-12T21:52:42.065Z,6.20
2023-02-12T21:55:10.164Z,5.60
2023-02-12T21:57:38.270Z,5.90
2023-02-12T22:00:07.563Z,6.93
2023-02-12T22:02:36.934Z,7.70
2023-02-12T22:05:04.927Z,7.90
2023-02-12T22:07:32.851Z,8.70
2023-02-12T22:10:01.462Z,7.90
2023-02-12T22:12:32.301Z,7.83
2023-02-12T22:15:00.330Z,8.53
2023-02-12T22:17:28.272Z,8.23
2023-02-12T22:19:57.596Z,9.20
2023-02-12T22:22:25.619Z,9.27
2023-02-12T22:24:53.608Z,7.77
2023-02-12T22:27:21.582Z,8.70
2023-02-12T22:29:50.266Z,8.33
2023-02-12T22:32:18.410Z,8.30
2023-02-12T22:34:46.493Z,8.20
2023-02-12T22:37:15.826Z,9.07
2023-02-12T22:39:43.776Z,8.40
2023-02-12T22:42:12.100Z,8.53
2023-02-12T22:44:40.070Z,8.43
2023-02-12T22:47:08.058Z,9.47
2023-02-12T22:49:36.006Z,8.97
2023-02-12T22:52:04.033Z,8.67
2023-02-12T22:54:33.404Z,8.83
2023-02-12T22:57:01.338Z,8.30
2023-02-12T22:59:29.494Z,8.30
2023-02-12T23:01:59.160Z,9.00
2023-02-12T23:04:28.889Z,9.00
2023-02-12T23:06:56.918Z,8.70
2023-02-12T23:09:24.905Z,9.47
2023-02-12T23:11:54.248Z,8.90
2023-02-12T23:14:22.237Z,9.60
2023-02-12T23:16:50.242Z,10.10
2023-02-12T23:19:18.255Z,9.10
2023-02-12T23:21:46.223Z,9.23
2023-02-12T23:24:16.074Z,8.37
2023-02-12T23:26:44.164Z,9.73
2023-02-12T23:29:13.827Z,10.30
2023-02-12T23:31:41.938Z,9.70
2023-02-12T23:34:10.053Z,9.67
2023-02-12T23:36:38.068Z,10.00
2023-02-12T23:39:06.683Z,9.53
2023-02-12T23:41:34.634Z,10.93
2023-02-12T23:44:02.596Z,10.97
2023-02-12T23:46:32.010Z,10.53
2023-02-12T23:48:59.973Z,10.27
2023-02-12T23:51:27.958Z,11.13
2023-02-12T23:53:55.955Z,11.37
2023-02-12T23:56:24.187Z,10.57
2023-02-12T23:58:52.246Z,10.57
